SBMN/MAO METAR and TAF weather

Enter ICAO airport designator
Station Type Date Time Source
SBMN METAR 2019/04/20 22:00 UTC NOAA

SBMN 202200Z 08003KT 9999 FEW015 BKN100 27/24 Q1009


Station Type Date Time Source
SBMN Decoded METAR 2019/04/20 22:00 UTC NOAA

Manaus Aeroporto , Brazil (SBMN) 03-09S 059-59W 84M
Apr 20, 2019 - 06:00 PM EDT / 2019.04.20 2200 UTC
Wind: from the E (080 degrees) at 3 MPH (3 KT):0
Visibility: greater than 7 mile(s):0
Sky conditions: mostly cloudy
Temperature: 80 F (27 C)
Dew Point: 75 F (24 C)
Relative Humidity: 83%
Pressure (altimeter): 29.80 in. Hg (1009 hPa)
ob: SBMN 202200Z 08003KT 9999 FEW015 BKN100 27/24 Q1009
cycle: 22

Station Type Date Time Source
SBMN TAF 2019/04/20 18:54 UTC NOAA

TAF SBMN 201600Z 2018/2118 08005KT 8000 SCT022 FEW025TCU TN25/2108Z T X30/2117Z PROB40
TEMPO 2019/2021 4000 RA SCT008 FEW025TCU
BECMG 2101/2102 CAVOK
BECMG 2107/2109 BKN008 PROB40 2111/21 14 BKN007
BECMG 2114/2116 SCT020 FEW025TCU
RMK PEO

Example: see airport list